sensor_id;sensor_type;location;lat;lon;timestamp;temperature;humidity
26051;DHT22;13825;53.496;10.020;2024-02-26T00:00:11;3.20;99.90
26051;DHT22;13825;53.496;10.020;2024-02-26T00:02:38;3.00;99.90
26051;DHT22;13825;53.496;10.020;2024-02-26T00:05:05;3.00;99.90
26051;DHT22;13825;53.496;10.020;2024-02-26T00:07:32;2.90;99.90
26051;DHT22;13825;53.496;10.020;2024-02-26T00:09:59;2.50;99.90
26051;DHT22;13825;53.496;10.020;2024-02-26T00:12:27;2.80;99.90
26051;DHT22;13825;53.496;10.020;2024-02-26T00:14:54;2.30;99.90
26051;DHT22;13825;53.496;10.020;2024-02-26T00:17:23;2.40;99.90
26051;DHT22;13825;53.496;10.020;2024-02-26T00:19:50;2.70;99.90
26051;DHT22;13825;53.496;10.020;2024-02-26T00:22:17;2.90;99.90
26051;DHT22;13825;53.496;10.020;2024-02-26T00:24:43;3.40;99.90
26051;DHT22;13825;53.496;10.020;2024-02-26T00:27:10;1.90;99.90
26051;DHT22;13825;53.496;10.020;2024-02-26T00:29:38;3.10;99.90
26051;DHT22;13825;53.496;10.020;2024-02-26T00:32:05;2.40;99.90
26051;DHT22;13825;53.496;10.020;2024-02-26T00:34:32;3.00;99.90
26051;DHT22;13825;53.496;10.020;2024-02-26T00:36:58;2.50;99.90
26051;DHT22;13825;53.496;10.020;2024-02-26T00:39:25;2.50;99.90
26051;DHT22;13825;53.496;10.020;2024-02-26T00:41:52;2.30;99.90
26051;DHT22;13825;53.496;10.020;2024-02-26T00:44:18;2.20;99.90
26051;DHT22;13825;53.496;10.020;2024-02-26T00:46:47;1.70;99.90
26051;DHT22;13825;53.496;10.020;2024-02-26T00:49:13;3.10;99.90
26051;DHT22;13825;53.496;10.020;2024-02-26T00:51:40;2.20;99.90
26051;DHT22;13825;53.496;10.020;2024-02-26T00:54:07;2.00;99.90
26051;DHT22;13825;53.496;10.020;2024-02-26T00:56:34;1.50;99.90
26051;DHT22;13825;53.496;10.020;2024-02-26T00:59:00;2.00;99.90
26051;DHT22;13825;53.496;10.020;2024-02-26T01:01:27;1.30;99.90
26051;DHT22;13825;53.496;10.020;2024-02-26T01:03:55;1.80;99.90
26051;DHT22;13825;53.496;10.020;2024-02-26T01:06:22;2.50;99.90
26051;DHT22;13825;53.496;10.020;2024-02-26T01:08:49;2.50;99.90
26051;DHT22;13825;53.496;10.020;2024-02-26T01:11:16;2.20;99.90
26051;DHT22;13825;53.496;10.020;2024-02-26T01:13:43;2.40;99.90
26051;DHT22;13825;53.496;10.020;2024-02-26T01:16:18;1.80;99.90
26051;DHT22;13825;53.496;10.020;2024-02-26T01:18:59;2.10;99.90
26051;DHT22;13825;53.496;10.020;2024-02-26T01:21:28;1.90;99.90
26051;DHT22;13825;53.496;10.020;2024-02-26T01:24:10;1.70;99.90
26051;DHT22;13825;53.496;10.020;2024-02-26T01:26:36;1.70;99.90
26051;DHT22;13825;53.496;10.020;2024-02-26T01:29:03;1.70;99.90
26051;DHT22;13825;53.496;10.020;2024-02-26T01:31:32;1.40;99.90
26051;DHT22;13825;53.496;10.020;2024-02-26T01:36:47;1.50;99.90
26051;DHT22;13825;53.496;10.020;2024-02-26T01:39:20;1.50;99.90
26051;DHT22;13825;53.496;10.020;2024-02-26T01:41:47;1.80;99.90
26051;DHT22;13825;53.496;10.020;2024-02-26T01:44:23;1.60;99.90
26051;DHT22;13825;53.496;10.020;2024-02-26T01:46:51;1.40;99.90
26051;DHT22;13825;53.496;10.020;2024-02-26T01:49:18;1.40;99.90
26051;DHT22;13825;53.496;10.020;2024-02-26T01:51:50;1.40;99.90
26051;DHT22;13825;53.496;10.020;2024-02-26T01:54:24;1.40;99.90
26051;DHT22;13825;53.496;10.020;2024-02-26T01:56:56;1.40;99.90
26051;DHT22;13825;53.496;10.020;2024-02-26T01:59:41;1.30;99.90
26051;DHT22;13825;53.496;10.020;2024-02-26T02:02:11;1.40;99.90
26051;DHT22;13825;53.496;10.020;2024-02-26T02:04:57;1.20;99.90
26051;DHT22;13825;53.496;10.020;2024-02-26T02:07:29;1.30;99.90
26051;DHT22;13825;53.496;10.020;2024-02-26T02:10:00;1.30;99.90
26051;DHT22;13825;53.496;10.020;2024-02-26T02:12:27;1.20;99.90
26051;DHT22;13825;53.496;10.020;2024-02-26T02:14:58;1.20;99.90
26051;DHT22;13825;53.496;10.020;2024-02-26T02:17:28;1.30;99.90
26051;DHT22;13825;53.496;10.020;2024-02-26T02:19:58;1.20;99.90
26051;DHT22;13825;53.496;10.020;2024-02-26T02:22:29;1.20;99.90
26051;DHT22;13825;53.496;10.020;2024-02-26T02:24:59;0.70;99.90
26051;DHT22;13825;53.496;10.020;2024-02-26T02:27:26;1.10;99.90
26051;DHT22;13825;53.496;10.020;2024-02-26T02:29:57;1.10;99.90
26051;DHT22;13825;53.496;10.020;2024-02-26T02:32:31;1.00;99.90
26051;DHT22;13825;53.496;10.020;2024-02-26T02:35:15;1.00;99.90
26051;DHT22;13825;53.496;10.020;2024-02-26T02:37:52;1.40;99.90
26051;DHT22;13825;53.496;10.020;2024-02-26T02:40:22;1.00;99.90
26051;DHT22;13825;53.496;10.020;2024-02-26T02:42:53;0.90;99.90
26051;DHT22;13825;53.496;10.020;2024-02-26T02:45:32;0.90;99.90
26051;DHT22;13825;53.496;10.020;2024-02-26T02:48:14;0.80;99.90
26051;DHT22;13825;53.496;10.020;2024-02-26T02:50:44;0.90;99.90
26051;DHT22;13825;53.496;10.020;2024-02-26T02:53:15;0.90;99.90
26051;DHT22;13825;53.496;10.020;2024-02-26T02:55:52;0.90;99.90
26051;DHT22;13825;53.496;10.020;2024-02-26T02:58:30;0.90;99.90
26051;DHT22;13825;53.496;10.020;2024-02-26T03:01:06;0.80;99.90
26051;DHT22;13825;53.496;10.020;2024-02-26T03:07:02;0.70;99.90
26051;DHT22;13825;53.496;10.020;2024-02-26T03:12:41;0.80;99.90
26051;DHT22;13825;53.496;10.020;2024-02-26T03:15:19;0.70;99.90
26051;DHT22;13825;53.496;10.020;2024-02-26T03:18:26;0.60;99.90
26051;DHT22;13825;53.496;10.020;2024-02-26T03:20:59;1.00;99.90
26051;DHT22;13825;53.496;10.020;2024-02-26T03:26:35;0.30;99.90
26051;DHT22;13825;53.496;10.020;2024-02-26T03:29:32;0.50;99.90
26051;DHT22;13825;53.496;10.020;2024-02-26T03:32:07;0.90;99.90
26051;DHT22;13825;53.496;10.020;2024-02-26T03:34:44;0.50;99.90
26051;DHT22;13825;53.496;10.020;2024-02-26T03:37:24;0.30;99.90
26051;DHT22;13825;53.496;10.020;2024-02-26T03:39:56;0.30;99.90
26051;DHT22;13825;53.496;10.020;2024-02-26T03:42:36;0.10;99.90
26051;DHT22;13825;53.496;10.020;2024-02-26T03:48:19;0.40;99.90
26051;DHT22;13825;53.496;10.020;2024-02-26T03:54:08;0.40;99.90
26051;DHT22;13825;53.496;10.020;2024-02-26T03:57:19;0.20;99.90
26051;DHT22;13825;53.496;10.020;2024-02-26T04:00:14;0.70;99.90
26051;DHT22;13825;53.496;10.020;2024-02-26T04:02:41;0.40;99.90
26051;DHT22;13825;53.496;10.020;2024-02-26T04:05:10;0.70;99.90
26051;DHT22;13825;53.496;10.020;2024-02-26T04:07:38;0.00;99.90
26051;DHT22;13825;53.496;10.020;2024-02-26T04:10:13;0.30;99.90
26051;DHT22;13825;53.496;10.020;2024-02-26T04:12:45;0.00;99.90
26051;DHT22;13825;53.496;10.020;2024-02-26T04:15:29;0.50;99.90
26051;DHT22;13825;53.496;10.020;2024-02-26T04:18:26;0.30;99.90
26051;DHT22;13825;53.496;10.020;2024-02-26T04:21:08;1.20;99.90
26051;DHT22;13825;53.496;10.020;2024-02-26T04:26:50;0.80;99.90
26051;DHT22;13825;53.496;10.020;2024-02-26T04:29:24;0.40;99.90
26051;DHT22;13825;53.496;10.020;2024-02-26T04:32:12;0.30;99.90
26051;DHT22;13825;53.496;10.020;2024-02-26T04:35:06;0.30;99.90
26051;DHT22;13825;53.496;10.020;2024-02-26T04:44:10;0.70;99.90
26051;DHT22;13825;53.496;10.020;2024-02-26T04:53:00;0.40;99.90
26051;DHT22;13825;53.496;10.020;2024-02-26T04:55:44;0.80;99.90
26051;DHT22;13825;53.496;10.020;2024-02-26T05:13:15;0.30;99.90
26051;DHT22;13825;53.496;10.020;2024-02-26T05:19:23;0.30;99.90
26051;DHT22;13825;53.496;10.020;2024-02-26T05:25:35;0.40;99.90
26051;DHT22;13825;53.496;10.020;2024-02-26T05:50:07;0.20;99.90
26051;DHT22;13825;53.496;10.020;2024-02-26T05:52:58;0.40;99.90
26051;DHT22;13825;53.496;10.020;2024-02-26T05:55:35;0.40;99.90
26051;DHT22;13825;53.496;10.020;2024-02-26T05:58:49;0.40;99.90
26051;DHT22;13825;53.496;10.020;2024-02-26T06:07:22;0.20;99.90
26051;DHT22;13825;53.496;10.020;2024-02-26T06:10:20;0.90;99.90
26051;DHT22;13825;53.496;10.020;2024-02-26T06:13:21;0.50;99.90
26051;DHT22;13825;53.496;10.020;2024-02-26T06:16:18;0.60;99.90
26051;DHT22;13825;53.496;10.020;2024-02-26T06:34:12;1.20;99.90
26051;DHT22;13825;53.496;10.020;2024-02-26T06:39:54;1.40;99.90
26051;DHT22;13825;53.496;10.020;2024-02-26T06:42:30;0.60;99.90
26051;DHT22;13825;53.496;10.020;2024-02-26T06:45:22;0.60;99.90
26051;DHT22;13825;53.496;10.020;2024-02-26T06:48:24;0.90;99.90
26051;DHT22;13825;53.496;10.020;2024-02-26T06:51:14;1.10;99.90
26051;DHT22;13825;53.496;10.020;2024-02-26T06:58:03;1.20;99.90
26051;DHT22;13825;53.496;10.020;2024-02-26T07:00:06;1.00;99.90
26051;DHT22;13825;53.496;10.020;2024-02-26T07:11:51;1.70;99.90
26051;DHT22;13825;53.496;10.020;2024-02-26T07:17:18;1.70;99.90
26051;DHT22;13825;53.496;10.020;2024-02-26T07:26:25;1.80;99.90
26051;DHT22;13825;53.496;10.020;2024-02-26T07:29:13;1.80;99.90
26051;DHT22;13825;53.496;10.020;2024-02-26T07:31:48;1.80;99.90
26051;DHT22;13825;53.496;10.020;2024-02-26T07:34:18;2.20;99.90
26051;DHT22;13825;53.496;10.020;2024-02-26T07:36:56;2.00;99.90
26051;DHT22;13825;53.496;10.020;2024-02-26T07:39:46;2.10;99.90
26051;DHT22;13825;53.496;10.020;2024-02-26T07:45:31;2.50;99.90
26051;DHT22;13825;53.496;10.020;2024-02-26T07:48:15;2.80;99.90
26051;DHT22;13825;53.496;10.020;2024-02-26T07:50:56;2.60;99.90
26051;DHT22;13825;53.496;10.020;2024-02-26T07:53:26;2.40;99.90
26051;DHT22;13825;53.496;10.020;2024-02-26T07:56:11;2.80;99.90
26051;DHT22;13825;53.496;10.020;2024-02-26T07:58:52;2.60;99.90
26051;DHT22;13825;53.496;10.020;2024-02-26T08:07:05;3.20;99.90
26051;DHT22;13825;53.496;10.020;2024-02-26T08:09:45;3.30;99.90
26051;DHT22;13825;53.496;10.020;2024-02-26T08:12:18;3.30;99.90
26051;DHT22;13825;53.496;10.020;2024-02-26T08:14:53;3.50;99.90
26051;DHT22;13825;53.496;10.020;2024-02-26T08:17:44;3.60;99.90
26051;DHT22;13825;53.496;10.020;2024-02-26T08:20:17;3.70;99.90
26051;DHT22;13825;53.496;10.020;2024-02-26T08:22:56;3.80;99.90
26051;DHT22;13825;53.496;10.020;2024-02-26T08:28:26;4.00;99.90
26051;DHT22;13825;53.496;10.020;2024-02-26T08:34:01;4.10;99.90
26051;DHT22;13825;53.496;10.020;2024-02-26T08:36:54;4.10;99.90
26051;DHT22;13825;53.496;10.020;2024-02-26T08:39:37;4.20;99.90
26051;DHT22;13825;53.496;10.020;2024-02-26T08:42:17;4.40;99.90
26051;DHT22;13825;53.496;10.020;2024-02-26T08:44:58;4.20;99.90
26051;DHT22;13825;53.496;10.020;2024-02-26T08:47:38;4.40;99.90
26051;DHT22;13825;53.496;10.020;2024-02-26T08:50:16;4.00;99.90
26051;DHT22;13825;53.496;10.020;2024-02-26T08:52:48;4.70;99.90
26051;DHT22;13825;53.496;10.020;2024-02-26T08:55:31;4.90;99.90
26051;DHT22;13825;53.496;10.020;2024-02-26T08:58:04;4.70;99.90
26051;DHT22;13825;53.496;10.020;2024-02-26T09:03:26;4.90;99.90
26051;DHT22;13825;53.496;10.020;2024-02-26T09:05:55;5.20;99.90
26051;DHT22;13825;53.496;10.020;2024-02-26T09:08:44;5.10;99.90
26051;DHT22;13825;53.496;10.020;2024-02-26T09:14:24;4.90;99.90
26051;DHT22;13825;53.496;10.020;2024-02-26T09:16:51;4.80;89.40
26051;DHT22;13825;53.496;10.020;2024-02-26T09:19:40;5.10;99.90
26051;DHT22;13825;53.496;10.020;2024-02-26T09:22:12;5.30;95.00
26051;DHT22;13825;53.496;10.020;2024-02-26T09:24:59;5.10;61.30
26051;DHT22;13825;53.496;10.020;2024-02-26T09:27:31;5.20;23.70
26051;DHT22;13825;53.496;10.020;2024-02-26T09:30:13;5.00;63.90
26051;DHT22;13825;53.496;10.020;2024-02-26T09:32:48;5.00;34.00
26051;DHT22;13825;53.496;10.020;2024-02-26T09:35:18;4.90;40.10
26051;DHT22;13825;53.496;10.020;2024-02-26T09:38:05;4.90;82.80
26051;DHT22;13825;53.496;10.020;2024-02-26T09:40:32;4.90;67.30
26051;DHT22;13825;53.496;10.020;2024-02-26T09:43:02;5.10;77.60
26051;DHT22;13825;53.496;10.020;2024-02-26T09:48:37;5.20;79.60
26051;DHT22;13825;53.496;10.020;2024-02-26T09:51:11;5.50;68.20
26051;DHT22;13825;53.496;10.020;2024-02-26T09:53:53;5.50;11.50
26051;DHT22;13825;53.496;10.020;2024-02-26T09:56:23;5.20;19.60
26051;DHT22;13825;53.496;10.020;2024-02-26T09:58:57;5.50;56.70
26051;DHT22;13825;53.496;10.020;2024-02-26T10:01:36;5.60;26.40
26051;DHT22;13825;53.496;10.020;2024-02-26T10:04:10;5.60;1.00
26051;DHT22;13825;53.496;10.020;2024-02-26T10:06:37;5.90;10.50
26051;DHT22;13825;53.496;10.020;2024-02-26T10:09:12;5.80;6.80
26051;DHT22;13825;53.496;10.020;2024-02-26T10:11:41;6.00;1.00
26051;DHT22;13825;53.496;10.020;2024-02-26T10:14:11;6.20;1.00
26051;DHT22;13825;53.496;10.020;2024-02-26T10:16:45;6.20;1.00
26051;DHT22;13825;53.496;10.020;2024-02-26T10:19:17;6.30;1.00
26051;DHT22;13825;53.496;10.020;2024-02-26T10:22:01;6.50;1.00
26051;DHT22;13825;53.496;10.020;2024-02-26T10:24:38;6.70;1.00
26051;DHT22;13825;53.496;10.020;2024-02-26T10:27:05;6.90;1.00
26051;DHT22;13825;53.496;10.020;2024-02-26T10:29:37;6.40;1.00
26051;DHT22;13825;53.496;10.020;2024-02-26T10:32:04;6.80;1.00
26051;DHT22;13825;53.496;10.020;2024-02-26T10:34:36;6.80;1.00
26051;DHT22;13825;53.496;10.020;2024-02-26T10:37:06;6.90;1.00
26051;DHT22;13825;53.496;10.020;2024-02-26T10:39:36;7.10;1.00
26051;DHT22;13825;53.496;10.020;2024-02-26T10:42:03;7.20;1.00
26051;DHT22;13825;53.496;10.020;2024-02-26T10:44:40;7.40;1.00
26051;DHT22;13825;53.496;10.020;2024-02-26T10:47:12;7.30;1.00
26051;DHT22;13825;53.496;10.020;2024-02-26T10:49:52;7.30;1.00
26051;DHT22;13825;53.496;10.020;2024-02-26T10:52:23;7.10;1.00
26051;DHT22;13825;53.496;10.020;2024-02-26T10:54:57;6.90;1.00
26051;DHT22;13825;53.496;10.020;2024-02-26T10:57:29;7.00;1.00
26051;DHT22;13825;53.496;10.020;2024-02-26T11:00:08;7.00;1.00
26051;DHT22;13825;53.496;10.020;2024-02-26T11:02:44;7.00;1.00
26051;DHT22;13825;53.496;10.020;2024-02-26T11:05:20;7.30;1.00
26051;DHT22;13825;53.496;10.020;2024-02-26T11:08:03;7.10;1.00
26051;DHT22;13825;53.496;10.020;2024-02-26T11:10:31;7.20;1.00
26051;DHT22;13825;53.496;10.020;2024-02-26T11:13:07;7.10;1.00
26051;DHT22;13825;53.496;10.020;2024-02-26T11:15:35;7.30;1.00
26051;DHT22;13825;53.496;10.020;2024-02-26T11:18:06;7.20;1.00
26051;DHT22;13825;53.496;10.020;2024-02-26T11:23:15;7.30;1.00
26051;DHT22;13825;53.496;10.020;2024-02-26T11:25:44;7.20;1.00
26051;DHT22;13825;53.496;10.020;2024-02-26T11:28:17;7.30;1.00
26051;DHT22;13825;53.496;10.020;2024-02-26T11:30:46;7.40;1.00
26051;DHT22;13825;53.496;10.020;2024-02-26T11:33:21;7.50;1.00
26051;DHT22;13825;53.496;10.020;2024-02-26T11:35:49;7.50;1.00
26051;DHT22;13825;53.496;10.020;2024-02-26T11:38:21;7.50;1.00
26051;DHT22;13825;53.496;10.020;2024-02-26T11:40:51;7.40;1.00
26051;DHT22;13825;53.496;10.020;2024-02-26T11:43:22;7.30;1.00
26051;DHT22;13825;53.496;10.020;2024-02-26T11:45:50;7.30;1.00
26051;DHT22;13825;53.496;10.020;2024-02-26T11:48:24;7.30;1.00
26051;DHT22;13825;53.496;10.020;2024-02-26T11:50:55;7.10;1.00
26051;DHT22;13825;53.496;10.020;2024-02-26T11:53:47;7.20;1.00
26051;DHT22;13825;53.496;10.020;2024-02-26T11:56:19;7.40;1.00
26051;DHT22;13825;53.496;10.020;2024-02-26T11:58:46;7.50;1.00
26051;DHT22;13825;53.496;10.020;2024-02-26T12:04:03;7.70;1.00
26051;DHT22;13825;53.496;10.020;2024-02-26T12:12:01;7.80;1.00
26051;DHT22;13825;53.496;10.020;2024-02-26T12:14:38;7.80;1.00
26051;DHT22;13825;53.496;10.020;2024-02-26T12:17:20;7.70;1.00
26051;DHT22;13825;53.496;10.020;2024-02-26T12:19:56;7.70;1.00
26051;DHT22;13825;53.496;10.020;2024-02-26T12:22:38;7.90;1.00
26051;DHT22;13825;53.496;10.020;2024-02-26T12:25:17;8.10;1.00
26051;DHT22;13825;53.496;10.020;2024-02-26T12:28:04;8.00;1.00
26051;DHT22;13825;53.496;10.020;2024-02-26T12:30:33;8.20;1.00
26051;DHT22;13825;53.496;10.020;2024-02-26T12:33:03;8.20;1.00
26051;DHT22;13825;53.496;10.020;2024-02-26T12:35:32;8.30;1.00
26051;DHT22;13825;53.496;10.020;2024-02-26T12:38:00;8.50;1.00
26051;DHT22;13825;53.496;10.020;2024-02-26T12:40:30;8.60;1.00
26051;DHT22;13825;53.496;10.020;2024-02-26T12:42:58;8.60;1.00
26051;DHT22;13825;53.496;10.020;2024-02-26T12:45:33;8.50;1.00
26051;DHT22;13825;53.496;10.020;2024-02-26T12:48:01;8.60;1.00
26051;DHT22;13825;53.496;10.020;2024-02-26T12:50:34;8.60;1.00
26051;DHT22;13825;53.496;10.020;2024-02-26T12:53:04;8.40;1.00
26051;DHT22;13825;53.496;10.020;2024-02-26T12:55:36;8.50;1.00
26051;DHT22;13825;53.496;10.020;2024-02-26T12:58:16;8.70;1.00
26051;DHT22;13825;53.496;10.020;2024-02-26T13:00:58;8.50;1.00
26051;DHT22;13825;53.496;10.020;2024-02-26T13:03:48;8.70;1.00
26051;DHT22;13825;53.496;10.020;2024-02-26T13:06:20;8.70;1.00
26051;DHT22;13825;53.496;10.020;2024-02-26T13:08:48;8.60;1.00
26051;DHT22;13825;53.496;10.020;2024-02-26T13:11:20;9.00;1.00
26051;DHT22;13825;53.496;10.020;2024-02-26T13:13:52;8.90;1.00
26051;DHT22;13825;53.496;10.020;2024-02-26T13:16:25;8.90;1.00
26051;DHT22;13825;53.496;10.020;2024-02-26T13:19:10;8.90;1.00
26051;DHT22;13825;53.496;10.020;2024-02-26T13:21:55;9.00;1.00
26051;DHT22;13825;53.496;10.020;2024-02-26T13:24:42;8.90;1.00
26051;DHT22;13825;53.496;10.020;2024-02-26T13:27:31;8.60;1.00
26051;DHT22;13825;53.496;10.020;2024-02-26T13:36:10;8.80;1.00
26051;DHT22;13825;53.496;10.020;2024-02-26T13:39:04;8.40;1.00
26051;DHT22;13825;53.496;10.020;2024-02-26T13:41:39;8.30;1.00
26051;DHT22;13825;53.496;10.020;2024-02-26T13:47:08;8.60;1.00
26051;DHT22;13825;53.496;10.020;2024-02-26T13:50:27;8.50;1.00
26051;DHT22;13825;53.496;10.020;2024-02-26T13:52:59;8.30;1.00
26051;DHT22;13825;53.496;10.020;2024-02-26T13:55:34;8.30;1.00
26051;DHT22;13825;53.496;10.020;2024-02-26T13:58:06;8.30;1.00
26051;DHT22;13825;53.496;10.020;2024-02-26T14:00:44;8.30;1.00
26051;DHT22;13825;53.496;10.020;2024-02-26T14:03:35;8.40;1.00
26051;DHT22;13825;53.496;10.020;2024-02-26T14:06:23;8.40;1.00
26051;DHT22;13825;53.496;10.020;2024-02-26T14:12:03;8.00;1.00
26051;DHT22;13825;53.496;10.020;2024-02-26T14:14:42;8.00;1.00
26051;DHT22;13825;53.496;10.020;2024-02-26T14:17:39;8.00;1.00
26051;DHT22;13825;53.496;10.020;2024-02-26T14:20:17;8.10;1.00
26051;DHT22;13825;53.496;10.020;2024-02-26T14:23:00;8.40;1.00
26051;DHT22;13825;53.496;10.020;2024-02-26T14:25:31;8.50;1.00
26051;DHT22;13825;53.496;10.020;2024-02-26T14:37:36;8.30;1.00
26051;DHT22;13825;53.496;10.020;2024-02-26T14:40:24;8.10;1.00
26051;DHT22;13825;53.496;10.020;2024-02-26T14:43:07;8.10;1.00
26051;DHT22;13825;53.496;10.020;2024-02-26T14:45:47;8.20;1.00
26051;DHT22;13825;53.496;10.020;2024-02-26T14:48:30;8.10;1.00
26051;DHT22;13825;53.496;10.020;2024-02-26T14:50:58;7.80;1.00
26051;DHT22;13825;53.496;10.020;2024-02-26T14:56:41;7.90;1.00
26051;DHT22;13825;53.496;10.020;2024-02-26T14:59:18;7.70;1.00
26051;DHT22;13825;53.496;10.020;2024-02-26T15:04:41;7.60;1.00
26051;DHT22;13825;53.496;10.020;2024-02-26T15:07:15;7.40;1.00
26051;DHT22;13825;53.496;10.020;2024-02-26T15:09:56;7.40;1.00
26051;DHT22;13825;53.496;10.020;2024-02-26T15:12:28;7.50;1.00
26051;DHT22;13825;53.496;10.020;2024-02-26T15:15:02;7.10;1.00
26051;DHT22;13825;53.496;10.020;2024-02-26T15:17:43;7.00;1.00
26051;DHT22;13825;53.496;10.020;2024-02-26T15:20:25;7.00;1.00
26051;DHT22;13825;53.496;10.020;2024-02-26T15:22:57;7.00;1.00
26051;DHT22;13825;53.496;10.020;2024-02-26T15:28:30;6.90;1.00
26051;DHT22;13825;53.496;10.020;2024-02-26T15:31:03;6.90;1.00
26051;DHT22;13825;53.496;10.020;2024-02-26T15:33:41;6.70;1.00
26051;DHT22;13825;53.496;10.020;2024-02-26T15:36:27;6.90;1.00
26051;DHT22;13825;53.496;10.020;2024-02-26T15:39:22;6.70;1.00
26051;DHT22;13825;53.496;10.020;2024-02-26T15:42:01;6.80;1.00
26051;DHT22;13825;53.496;10.020;2024-02-26T15:47:23;6.60;1.00
26051;DHT22;13825;53.496;10.020;2024-02-26T15:50:07;6.50;1.00
26051;DHT22;13825;53.496;10.020;2024-02-26T15:52:52;6.50;1.00
26051;DHT22;13825;53.496;10.020;2024-02-26T15:55:32;6.40;1.00
26051;DHT22;13825;53.496;10.020;2024-02-26T15:58:07;6.30;1.00
26051;DHT22;13825;53.496;10.020;2024-02-26T16:00:39;6.40;1.00
26051;DHT22;13825;53.496;10.020;2024-02-26T16:03:19;6.30;1.00
26051;DHT22;13825;53.496;10.020;2024-02-26T16:05:51;6.20;1.00
26051;DHT22;13825;53.496;10.020;2024-02-26T16:08:20;6.10;1.00
26051;DHT22;13825;53.496;10.020;2024-02-26T16:13:50;6.10;1.00
26051;DHT22;13825;53.496;10.020;2024-02-26T16:16:20;6.00;1.00
26051;DHT22;13825;53.496;10.020;2024-02-26T16:19:09;6.30;1.00
26051;DHT22;13825;53.496;10.020;2024-02-26T16:21:51;6.00;1.00
26051;DHT22;13825;53.496;10.020;2024-02-26T16:24:23;6.00;1.00
26051;DHT22;13825;53.496;10.020;2024-02-26T16:27:01;6.00;1.00
26051;DHT22;13825;53.496;10.020;2024-02-26T16:29:33;5.80;1.00
26051;DHT22;13825;53.496;10.020;2024-02-26T16:32:06;5.70;1.00
26051;DHT22;13825;53.496;10.020;2024-02-26T16:34:42;5.70;1.00
26051;DHT22;13825;53.496;10.020;2024-02-26T16:37:12;5.80;1.00
26051;DHT22;13825;53.496;10.020;2024-02-26T16:39:45;5.60;1.00
26051;DHT22;13825;53.496;10.020;2024-02-26T16:42:14;5.40;1.00
26051;DHT22;13825;53.496;10.020;2024-02-26T16:44:55;5.60;1.00
26051;DHT22;13825;53.496;10.020;2024-02-26T16:47:29;5.80;1.00
26051;DHT22;13825;53.496;10.020;2024-02-26T16:50:09;5.60;1.00
26051;DHT22;13825;53.496;10.020;2024-02-26T16:52:39;5.50;1.00
26051;DHT22;13825;53.496;10.020;2024-02-26T16:55:35;5.50;1.00
26051;DHT22;13825;53.496;10.020;2024-02-26T16:58:15;5.60;1.00
26051;DHT22;13825;53.496;10.020;2024-02-26T17:00:51;5.40;1.00
26051;DHT22;13825;53.496;10.020;2024-02-26T17:03:28;5.40;1.00
26051;DHT22;13825;53.496;10.020;2024-02-26T17:06:07;5.30;1.00
26051;DHT22;13825;53.496;10.020;2024-02-26T17:08:50;5.30;1.00
26051;DHT22;13825;53.496;10.020;2024-02-26T17:11:22;5.20;1.00
26051;DHT22;13825;53.496;10.020;2024-02-26T17:13:58;5.20;1.00
26051;DHT22;13825;53.496;10.020;2024-02-26T17:16:27;5.10;1.00
26051;DHT22;13825;53.496;10.020;2024-02-26T17:19:09;5.00;1.00
26051;DHT22;13825;53.496;10.020;2024-02-26T17:21:57;5.10;1.00
26051;DHT22;13825;53.496;10.020;2024-02-26T17:24:26;5.10;1.00
26051;DHT22;13825;53.496;10.020;2024-02-26T17:27:07;4.90;1.00
26051;DHT22;13825;53.496;10.020;2024-02-26T17:29:44;5.00;1.00
26051;DHT22;13825;53.496;10.020;2024-02-26T17:35:17;5.00;1.00
26051;DHT22;13825;53.496;10.020;2024-02-26T17:37:50;4.80;1.00
26051;DHT22;13825;53.496;10.020;2024-02-26T17:40:20;4.80;1.00
26051;DHT22;13825;53.496;10.020;2024-02-26T17:45:32;4.70;1.00
26051;DHT22;13825;53.496;10.020;2024-02-26T17:48:03;4.60;1.00
26051;DHT22;13825;53.496;10.020;2024-02-26T17:50:49;4.60;1.00
26051;DHT22;13825;53.496;10.020;2024-02-26T17:53:24;4.70;1.00
26051;DHT22;13825;53.496;10.020;2024-02-26T17:55:58;4.60;1.00
26051;DHT22;13825;53.496;10.020;2024-02-26T17:58:34;4.60;1.00
26051;DHT22;13825;53.496;10.020;2024-02-26T18:01:15;4.60;1.00
26051;DHT22;13825;53.496;10.020;2024-02-26T18:03:47;4.60;1.00
26051;DHT22;13825;53.496;10.020;2024-02-26T18:09:15;4.70;1.00
26051;DHT22;13825;53.496;10.020;2024-02-26T18:11:51;4.40;1.00
26051;DHT22;13825;53.496;10.020;2024-02-26T18:14:28;4.60;1.00
26051;DHT22;13825;53.496;10.020;2024-02-26T18:17:03;4.50;1.00
26051;DHT22;13825;53.496;10.020;2024-02-26T18:19:35;4.50;1.00
26051;DHT22;13825;53.496;10.020;2024-02-26T18:22:13;4.50;1.00
26051;DHT22;13825;53.496;10.020;2024-02-26T18:25:00;4.30;1.00
26051;DHT22;13825;53.496;10.020;2024-02-26T18:27:31;4.50;1.00
26051;DHT22;13825;53.496;10.020;2024-02-26T18:33:11;4.40;1.00
26051;DHT22;13825;53.496;10.020;2024-02-26T18:35:43;4.40;1.00
26051;DHT22;13825;53.496;10.020;2024-02-26T18:38:14;4.40;1.00
26051;DHT22;13825;53.496;10.020;2024-02-26T18:40:52;4.40;1.00
26051;DHT22;13825;53.496;10.020;2024-02-26T18:43:28;4.40;1.00
26051;DHT22;13825;53.496;10.020;2024-02-26T18:46:16;4.40;1.00
26051;DHT22;13825;53.496;10.020;2024-02-26T18:48:49;4.40;1.00
26051;DHT22;13825;53.496;10.020;2024-02-26T18:54:26;4.20;1.00
26051;DHT22;13825;53.496;10.020;2024-02-26T18:57:02;4.40;1.00
26051;DHT22;13825;53.496;10.020;2024-02-26T18:59:29;4.30;1.00
26051;DHT22;13825;53.496;10.020;2024-02-26T19:02:07;4.30;1.00
26051;DHT22;13825;53.496;10.020;2024-02-26T19:04:49;4.30;1.00
26051;DHT22;13825;53.496;10.020;2024-02-26T19:07:29;4.30;1.00
26051;DHT22;13825;53.496;10.020;2024-02-26T19:10:01;4.40;1.00
26051;DHT22;13825;53.496;10.020;2024-02-26T19:15:46;4.20;1.00
26051;DHT22;13825;53.496;10.020;2024-02-26T19:18:31;4.20;1.00
26051;DHT22;13825;53.496;10.020;2024-02-26T19:21:18;4.20;1.00
26051;DHT22;13825;53.496;10.020;2024-02-26T19:23:52;4.20;1.00
26051;DHT22;13825;53.496;10.020;2024-02-26T19:26:33;4.20;1.00
26051;DHT22;13825;53.496;10.020;2024-02-26T19:29:16;4.20;1.00
26051;DHT22;13825;53.496;10.020;2024-02-26T19:31:43;4.20;1.00
26051;DHT22;13825;53.496;10.020;2024-02-26T19:34:23;4.10;1.00
26051;DHT22;13825;53.496;10.020;2024-02-26T19:37:02;4.20;1.00
26051;DHT22;13825;53.496;10.020;2024-02-26T19:39:43;4.10;1.00
26051;DHT22;13825;53.496;10.020;2024-02-26T19:42:24;4.10;1.00
26051;DHT22;13825;53.496;10.020;2024-02-26T19:48:14;4.00;1.00
26051;DHT22;13825;53.496;10.020;2024-02-26T19:50:57;3.80;1.00
26051;DHT22;13825;53.496;10.020;2024-02-26T19:53:40;3.90;1.00
26051;DHT22;13825;53.496;10.020;2024-02-26T19:56:20;4.00;1.00
26051;DHT22;13825;53.496;10.020;2024-02-26T19:58:47;3.80;1.00
26051;DHT22;13825;53.496;10.020;2024-02-26T20:01:36;3.90;1.00
26051;DHT22;13825;53.496;10.020;2024-02-26T20:04:13;3.70;1.00
26051;DHT22;13825;53.496;10.020;2024-02-26T20:06:44;3.80;1.00
26051;DHT22;13825;53.496;10.020;2024-02-26T20:09:18;3.70;1.00
26051;DHT22;13825;53.496;10.020;2024-02-26T20:12:01;3.70;1.00